sensor_id;sensor_type;location;lat;lon;timestamp;temperature;humidity
16066;DHT22;8137;48.952;8.970;2023-10-08T00:02:44;11.50;99.90
16066;DHT22;8137;48.952;8.970;2023-10-08T00:05:10;11.50;99.90
16066;DHT22;8137;48.952;8.970;2023-10-08T00:07:36;11.50;99.90
16066;DHT22;8137;48.952;8.970;2023-10-08T00:10:01;11.60;99.90
16066;DHT22;8137;48.952;8.970;2023-10-08T00:12:28;11.60;99.90
16066;DHT22;8137;48.952;8.970;2023-10-08T00:14:54;11.60;99.90
16066;DHT22;8137;48.952;8.970;2023-10-08T00:17:20;11.60;99.90
16066;DHT22;8137;48.952;8.970;2023-10-08T00:19:46;11.70;99.90
16066;DHT22;8137;48.952;8.970;2023-10-08T00:22:17;11.70;99.90
16066;DHT22;8137;48.952;8.970;2023-10-08T00:24:44;11.80;99.90
16066;DHT22;8137;48.952;8.970;2023-10-08T00:27:12;11.80;99.90
16066;DHT22;8137;48.952;8.970;2023-10-08T00:29:40;11.90;99.90
16066;DHT22;8137;48.952;8.970;2023-10-08T00:32:08;11.90;99.90
16066;DHT22;8137;48.952;8.970;2023-10-08T00:34:41;11.90;99.90
16066;DHT22;8137;48.952;8.970;2023-10-08T00:37:10;11.90;99.90
16066;DHT22;8137;48.952;8.970;2023-10-08T00:39:39;11.90;99.90
16066;DHT22;8137;48.952;8.970;2023-10-08T00:42:07;11.90;99.90
16066;DHT22;8137;48.952;8.970;2023-10-08T00:44:36;11.90;99.90
16066;DHT22;8137;48.952;8.970;2023-10-08T00:47:14;11.80;99.90
16066;DHT22;8137;48.952;8.970;2023-10-08T00:49:40;11.80;99.90
16066;DHT22;8137;48.952;8.970;2023-10-08T00:52:09;11.80;99.90
16066;DHT22;8137;48.952;8.970;2023-10-08T00:54:41;11.80;99.90
16066;DHT22;8137;48.952;8.970;2023-10-08T00:57:31;11.80;99.90
16066;DHT22;8137;48.952;8.970;2023-10-08T01:00:00;11.70;99.90
16066;DHT22;8137;48.952;8.970;2023-10-08T01:02:30;11.70;99.90
16066;DHT22;8137;48.952;8.970;2023-10-08T01:05:10;11.70;99.90
16066;DHT22;8137;48.952;8.970;2023-10-08T01:07:39;11.70;99.90
16066;DHT22;8137;48.952;8.970;2023-10-08T01:10:10;11.70;99.90
16066;DHT22;8137;48.952;8.970;2023-10-08T01:12:36;11.60;99.90
16066;DHT22;8137;48.952;8.970;2023-10-08T01:15:10;11.60;99.90
16066;DHT22;8137;48.952;8.970;2023-10-08T01:17:44;11.60;99.90
16066;DHT22;8137;48.952;8.970;2023-10-08T01:20:30;11.50;99.90
16066;DHT22;8137;48.952;8.970;2023-10-08T01:23:06;11.50;99.90
16066;DHT22;8137;48.952;8.970;2023-10-08T01:25:36;11.50;99.90
16066;DHT22;8137;48.952;8.970;2023-10-08T01:28:02;11.40;99.90
16066;DHT22;8137;48.952;8.970;2023-10-08T01:30:41;11.50;99.90
16066;DHT22;8137;48.952;8.970;2023-10-08T01:33:08;11.50;99.90
16066;DHT22;8137;48.952;8.970;2023-10-08T01:35:39;11.50;99.90
16066;DHT22;8137;48.952;8.970;2023-10-08T01:38:05;11.50;99.90
16066;DHT22;8137;48.952;8.970;2023-10-08T01:40:32;11.60;99.90
16066;DHT22;8137;48.952;8.970;2023-10-08T01:42:58;11.70;99.90
16066;DHT22;8137;48.952;8.970;2023-10-08T01:45:29;11.80;99.90
16066;DHT22;8137;48.952;8.970;2023-10-08T01:47:55;11.90;99.90
16066;DHT22;8137;48.952;8.970;2023-10-08T01:50:22;12.00;99.90
16066;DHT22;8137;48.952;8.970;2023-10-08T01:52:50;12.00;99.90
16066;DHT22;8137;48.952;8.970;2023-10-08T01:55:17;12.10;99.90
16066;DHT22;8137;48.952;8.970;2023-10-08T01:57:47;12.20;99.90
16066;DHT22;8137;48.952;8.970;2023-10-08T02:00:14;12.20;99.90
16066;DHT22;8137;48.952;8.970;2023-10-08T02:02:45;12.30;99.90
16066;DHT22;8137;48.952;8.970;2023-10-08T02:05:11;12.20;99.90
16066;DHT22;8137;48.952;8.970;2023-10-08T02:07:40;12.10;99.90
16066;DHT22;8137;48.952;8.970;2023-10-08T02:10:07;12.00;99.90
16066;DHT22;8137;48.952;8.970;2023-10-08T02:12:36;12.00;99.90
16066;DHT22;8137;48.952;8.970;2023-10-08T02:15:01;12.00;99.90
16066;DHT22;8137;48.952;8.970;2023-10-08T02:17:28;12.00;99.90
16066;DHT22;8137;48.952;8.970;2023-10-08T02:19:53;12.20;99.90
16066;DHT22;8137;48.952;8.970;2023-10-08T02:22:19;12.30;99.90
16066;DHT22;8137;48.952;8.970;2023-10-08T02:24:45;12.30;99.90
16066;DHT22;8137;48.952;8.970;2023-10-08T02:27:10;12.10;99.90
16066;DHT22;8137;48.952;8.970;2023-10-08T02:29:36;12.10;99.90
16066;DHT22;8137;48.952;8.970;2023-10-08T02:32:02;12.10;99.90
16066;DHT22;8137;48.952;8.970;2023-10-08T02:34:29;12.10;99.90
16066;DHT22;8137;48.952;8.970;2023-10-08T02:36:56;12.20;99.90
16066;DHT22;8137;48.952;8.970;2023-10-08T02:39:22;12.20;99.90
16066;DHT22;8137;48.952;8.970;2023-10-08T02:41:51;12.30;99.90
16066;DHT22;8137;48.952;8.970;2023-10-08T02:44:18;12.40;99.90
16066;DHT22;8137;48.952;8.970;2023-10-08T02:46:47;12.40;99.90
16066;DHT22;8137;48.952;8.970;2023-10-08T02:49:19;12.50;99.90
16066;DHT22;8137;48.952;8.970;2023-10-08T02:51:46;12.60;99.90
16066;DHT22;8137;48.952;8.970;2023-10-08T02:54:12;12.70;99.90
16066;DHT22;8137;48.952;8.970;2023-10-08T02:56:48;12.80;99.90
16066;DHT22;8137;48.952;8.970;2023-10-08T02:59:18;12.90;99.90
16066;DHT22;8137;48.952;8.970;2023-10-08T03:01:47;12.80;99.90
16066;DHT22;8137;48.952;8.970;2023-10-08T03:04:15;12.90;99.90
16066;DHT22;8137;48.952;8.970;2023-10-08T03:06:47;12.80;99.90
16066;DHT22;8137;48.952;8.970;2023-10-08T03:09:20;12.80;99.90
16066;DHT22;8137;48.952;8.970;2023-10-08T03:11:47;12.80;99.90
16066;DHT22;8137;48.952;8.970;2023-10-08T03:14:14;12.80;99.90
16066;DHT22;8137;48.952;8.970;2023-10-08T03:16:51;12.80;99.90
16066;DHT22;8137;48.952;8.970;2023-10-08T03:19:22;12.80;99.90
16066;DHT22;8137;48.952;8.970;2023-10-08T03:21:48;12.80;99.90
16066;DHT22;8137;48.952;8.970;2023-10-08T03:24:21;12.70;99.90
16066;DHT22;8137;48.952;8.970;2023-10-08T03:27:05;12.70;99.90
16066;DHT22;8137;48.952;8.970;2023-10-08T03:29:51;12.70;99.90
16066;DHT22;8137;48.952;8.970;2023-10-08T03:32:19;12.50;99.90
16066;DHT22;8137;48.952;8.970;2023-10-08T03:34:52;12.40;99.90
16066;DHT22;8137;48.952;8.970;2023-10-08T03:37:22;12.20;99.90
16066;DHT22;8137;48.952;8.970;2023-10-08T03:39:55;12.20;99.90
16066;DHT22;8137;48.952;8.970;2023-10-08T03:42:32;12.10;99.90
16066;DHT22;8137;48.952;8.970;2023-10-08T03:45:06;12.10;99.90
16066;DHT22;8137;48.952;8.970;2023-10-08T03:47:41;12.00;99.90
16066;DHT22;8137;48.952;8.970;2023-10-08T03:50:12;12.00;99.90
16066;DHT22;8137;48.952;8.970;2023-10-08T03:52:42;12.00;99.90
16066;DHT22;8137;48.952;8.970;2023-10-08T03:55:09;12.00;99.90
16066;DHT22;8137;48.952;8.970;2023-10-08T03:57:43;12.00;99.90
16066;DHT22;8137;48.952;8.970;2023-10-08T04:00:14;12.00;99.90
16066;DHT22;8137;48.952;8.970;2023-10-08T04:02:47;12.10;99.90
16066;DHT22;8137;48.952;8.970;2023-10-08T04:05:26;12.00;99.90
16066;DHT22;8137;48.952;8.970;2023-10-08T04:07:59;12.00;99.90
16066;DHT22;8137;48.952;8.970;2023-10-08T04:10:29;11.90;99.90
16066;DHT22;8137;48.952;8.970;2023-10-08T04:13:04;11.90;99.90
16066;DHT22;8137;48.952;8.970;2023-10-08T04:15:37;11.80;99.90
16066;DHT22;8137;48.952;8.970;2023-10-08T04:18:10;11.80;99.90
16066;DHT22;8137;48.952;8.970;2023-10-08T04:20:36;11.80;99.90
16066;DHT22;8137;48.952;8.970;2023-10-08T04:23:07;11.80;99.90
16066;DHT22;8137;48.952;8.970;2023-10-08T04:25:47;11.80;99.90
16066;DHT22;8137;48.952;8.970;2023-10-08T04:28:18;11.70;99.90
16066;DHT22;8137;48.952;8.970;2023-10-08T04:30:49;11.70;99.90
16066;DHT22;8137;48.952;8.970;2023-10-08T04:33:16;11.70;99.90
16066;DHT22;8137;48.952;8.970;2023-10-08T04:35:45;11.70;99.90
16066;DHT22;8137;48.952;8.970;2023-10-08T04:38:19;11.60;99.90
16066;DHT22;8137;48.952;8.970;2023-10-08T04:40:47;11.60;99.90
16066;DHT22;8137;48.952;8.970;2023-10-08T04:43:18;11.50;99.90
16066;DHT22;8137;48.952;8.970;2023-10-08T04:48:25;11.40;99.90
16066;DHT22;8137;48.952;8.970;2023-10-08T04:50:52;11.40;99.90
16066;DHT22;8137;48.952;8.970;2023-10-08T04:53:34;11.30;99.90
16066;DHT22;8137;48.952;8.970;2023-10-08T04:56:07;11.20;99.90
16066;DHT22;8137;48.952;8.970;2023-10-08T04:58:41;11.20;99.90
16066;DHT22;8137;48.952;8.970;2023-10-08T05:01:18;11.10;99.90
16066;DHT22;8137;48.952;8.970;2023-10-08T05:03:50;11.00;99.90
16066;DHT22;8137;48.952;8.970;2023-10-08T05:06:29;11.00;99.90
16066;DHT22;8137;48.952;8.970;2023-10-08T05:11:37;10.80;99.90
16066;DHT22;8137;48.952;8.970;2023-10-08T05:14:13;10.80;99.90
16066;DHT22;8137;48.952;8.970;2023-10-08T05:16:55;10.70;99.90
16066;DHT22;8137;48.952;8.970;2023-10-08T05:19:36;10.70;99.90
16066;DHT22;8137;48.952;8.970;2023-10-08T05:22:17;10.60;99.90
16066;DHT22;8137;48.952;8.970;2023-10-08T05:24:58;10.50;99.90
16066;DHT22;8137;48.952;8.970;2023-10-08T05:27:35;10.50;99.90
16066;DHT22;8137;48.952;8.970;2023-10-08T05:30:23;10.40;99.90
16066;DHT22;8137;48.952;8.970;2023-10-08T05:33:08;10.40;99.90
16066;DHT22;8137;48.952;8.970;2023-10-08T05:35:51;10.30;99.90
16066;DHT22;8137;48.952;8.970;2023-10-08T05:38:21;10.30;99.90
16066;DHT22;8137;48.952;8.970;2023-10-08T05:40:59;10.30;99.90
16066;DHT22;8137;48.952;8.970;2023-10-08T05:43:32;10.30;99.90
16066;DHT22;8137;48.952;8.970;2023-10-08T05:46:12;10.30;99.90
16066;DHT22;8137;48.952;8.970;2023-10-08T05:49:00;10.20;99.90
16066;DHT22;8137;48.952;8.970;2023-10-08T05:51:46;10.20;99.90
16066;DHT22;8137;48.952;8.970;2023-10-08T05:54:22;10.20;99.90
16066;DHT22;8137;48.952;8.970;2023-10-08T05:56:55;10.20;99.90
16066;DHT22;8137;48.952;8.970;2023-10-08T05:59:46;10.30;99.90
16066;DHT22;8137;48.952;8.970;2023-10-08T06:05:04;10.30;99.90
16066;DHT22;8137;48.952;8.970;2023-10-08T06:13:13;10.50;99.90
16066;DHT22;8137;48.952;8.970;2023-10-08T06:15:46;10.50;99.90
16066;DHT22;8137;48.952;8.970;2023-10-08T06:23:25;10.60;99.90
16066;DHT22;8137;48.952;8.970;2023-10-08T06:25:52;10.70;99.90
16066;DHT22;8137;48.952;8.970;2023-10-08T06:28:25;10.90;99.90
16066;DHT22;8137;48.952;8.970;2023-10-08T06:30:55;11.00;99.90
16066;DHT22;8137;48.952;8.970;2023-10-08T06:33:22;11.10;99.90
16066;DHT22;8137;48.952;8.970;2023-10-08T06:35:51;11.10;99.90
16066;DHT22;8137;48.952;8.970;2023-10-08T06:38:34;11.10;99.90
16066;DHT22;8137;48.952;8.970;2023-10-08T06:41:02;11.20;99.90
16066;DHT22;8137;48.952;8.970;2023-10-08T06:43:53;11.20;99.90
16066;DHT22;8137;48.952;8.970;2023-10-08T06:46:31;11.40;99.90
16066;DHT22;8137;48.952;8.970;2023-10-08T06:51:26;11.60;99.90
16066;DHT22;8137;48.952;8.970;2023-10-08T06:53:52;11.70;99.90
16066;DHT22;8137;48.952;8.970;2023-10-08T06:56:19;11.80;99.90
16066;DHT22;8137;48.952;8.970;2023-10-08T06:58:46;12.00;99.90
16066;DHT22;8137;48.952;8.970;2023-10-08T07:01:18;12.10;99.90
16066;DHT22;8137;48.952;8.970;2023-10-08T07:03:50;12.30;99.90
16066;DHT22;8137;48.952;8.970;2023-10-08T07:06:20;12.50;99.90
16066;DHT22;8137;48.952;8.970;2023-10-08T07:08:52;12.80;99.90
16066;DHT22;8137;48.952;8.970;2023-10-08T07:11:22;13.00;99.90
16066;DHT22;8137;48.952;8.970;2023-10-08T07:13:48;13.30;99.90
16066;DHT22;8137;48.952;8.970;2023-10-08T07:16:13;13.50;99.90
16066;DHT22;8137;48.952;8.970;2023-10-08T07:18:43;13.70;99.90
16066;DHT22;8137;48.952;8.970;2023-10-08T07:21:18;13.80;99.90
16066;DHT22;8137;48.952;8.970;2023-10-08T07:23:44;13.90;99.90
16066;DHT22;8137;48.952;8.970;2023-10-08T07:26:23;13.90;99.90
16066;DHT22;8137;48.952;8.970;2023-10-08T07:28:52;14.00;99.90
16066;DHT22;8137;48.952;8.970;2023-10-08T07:31:21;14.10;99.90
16066;DHT22;8137;48.952;8.970;2023-10-08T07:33:49;14.10;99.90
16066;DHT22;8137;48.952;8.970;2023-10-08T07:36:47;14.20;99.90
16066;DHT22;8137;48.952;8.970;2023-10-08T07:39:14;14.30;99.90
16066;DHT22;8137;48.952;8.970;2023-10-08T07:42:06;14.50;99.90
16066;DHT22;8137;48.952;8.970;2023-10-08T07:44:33;14.60;99.90
16066;DHT22;8137;48.952;8.970;2023-10-08T07:47:02;14.70;99.90
16066;DHT22;8137;48.952;8.970;2023-10-08T07:49:31;14.80;99.90
16066;DHT22;8137;48.952;8.970;2023-10-08T07:51:57;14.90;99.90
16066;DHT22;8137;48.952;8.970;2023-10-08T07:54:26;15.00;99.90
16066;DHT22;8137;48.952;8.970;2023-10-08T07:56:55;15.00;99.90
16066;DHT22;8137;48.952;8.970;2023-10-08T07:59:43;15.10;99.90
16066;DHT22;8137;48.952;8.970;2023-10-08T08:02:29;15.20;99.90
16066;DHT22;8137;48.952;8.970;2023-10-08T08:04:55;15.30;99.90
16066;DHT22;8137;48.952;8.970;2023-10-08T08:07:22;15.50;99.90
16066;DHT22;8137;48.952;8.970;2023-10-08T08:09:52;15.70;99.90
16066;DHT22;8137;48.952;8.970;2023-10-08T08:12:24;15.70;99.90
16066;DHT22;8137;48.952;8.970;2023-10-08T08:14:54;15.80;99.90
16066;DHT22;8137;48.952;8.970;2023-10-08T08:17:20;16.00;99.90
16066;DHT22;8137;48.952;8.970;2023-10-08T08:19:48;16.40;99.90
16066;DHT22;8137;48.952;8.970;2023-10-08T08:22:17;16.70;99.90
16066;DHT22;8137;48.952;8.970;2023-10-08T08:24:56;17.00;99.90
16066;DHT22;8137;48.952;8.970;2023-10-08T08:27:31;17.40;99.90
16066;DHT22;8137;48.952;8.970;2023-10-08T08:29:58;17.70;99.90
16066;DHT22;8137;48.952;8.970;2023-10-08T08:32:36;18.10;99.90
16066;DHT22;8137;48.952;8.970;2023-10-08T08:35:07;18.40;99.90
16066;DHT22;8137;48.952;8.970;2023-10-08T08:37:35;18.80;99.90
16066;DHT22;8137;48.952;8.970;2023-10-08T08:40:07;19.20;99.90
16066;DHT22;8137;48.952;8.970;2023-10-08T08:42:45;19.60;99.90
16066;DHT22;8137;48.952;8.970;2023-10-08T08:45:19;20.10;99.90
16066;DHT22;8137;48.952;8.970;2023-10-08T08:47:45;20.40;99.90
16066;DHT22;8137;48.952;8.970;2023-10-08T08:50:11;20.50;99.90
16066;DHT22;8137;48.952;8.970;2023-10-08T08:52:38;20.60;99.90
16066;DHT22;8137;48.952;8.970;2023-10-08T08:55:05;20.60;99.90
16066;DHT22;8137;48.952;8.970;2023-10-08T08:57:36;20.60;99.90
16066;DHT22;8137;48.952;8.970;2023-10-08T09:00:05;20.60;99.90
16066;DHT22;8137;48.952;8.970;2023-10-08T09:02:37;20.80;99.90
16066;DHT22;8137;48.952;8.970;2023-10-08T09:05:03;20.90;99.90
16066;DHT22;8137;48.952;8.970;2023-10-08T09:10:24;21.40;99.90
16066;DHT22;8137;48.952;8.970;2023-10-08T09:12:55;21.50;99.90
16066;DHT22;8137;48.952;8.970;2023-10-08T09:15:24;21.40;99.90
16066;DHT22;8137;48.952;8.970;2023-10-08T09:17:54;21.30;99.90
16066;DHT22;8137;48.952;8.970;2023-10-08T09:20:20;21.40;99.90
16066;DHT22;8137;48.952;8.970;2023-10-08T09:22:59;21.30;99.90
16066;DHT22;8137;48.952;8.970;2023-10-08T09:25:33;21.40;99.90
16066;DHT22;8137;48.952;8.970;2023-10-08T09:27:59;21.40;99.90
16066;DHT22;8137;48.952;8.970;2023-10-08T09:30:25;21.60;99.90
16066;DHT22;8137;48.952;8.970;2023-10-08T09:32:51;21.70;99.90
16066;DHT22;8137;48.952;8.970;2023-10-08T09:35:18;21.80;99.90
16066;DHT22;8137;48.952;8.970;2023-10-08T09:37:44;21.70;99.90
16066;DHT22;8137;48.952;8.970;2023-10-08T09:40:11;21.60;99.90
16066;DHT22;8137;48.952;8.970;2023-10-08T09:42:41;21.70;99.90
16066;DHT22;8137;48.952;8.970;2023-10-08T09:45:08;21.60;99.90
16066;DHT22;8137;48.952;8.970;2023-10-08T09:47:36;21.60;99.90
16066;DHT22;8137;48.952;8.970;2023-10-08T09:50:04;21.70;99.90
16066;DHT22;8137;48.952;8.970;2023-10-08T09:52:45;21.80;99.90
16066;DHT22;8137;48.952;8.970;2023-10-08T09:55:17;21.90;99.90
16066;DHT22;8137;48.952;8.970;2023-10-08T09:57:43;21.90;99.90
16066;DHT22;8137;48.952;8.970;2023-10-08T10:00:09;21.90;99.90
16066;DHT22;8137;48.952;8.970;2023-10-08T10:02:43;21.90;99.90
16066;DHT22;8137;48.952;8.970;2023-10-08T10:05:13;22.10;99.90
16066;DHT22;8137;48.952;8.970;2023-10-08T10:07:47;21.90;99.90
16066;DHT22;8137;48.952;8.970;2023-10-08T10:10:30;21.90;99.90
16066;DHT22;8137;48.952;8.970;2023-10-08T10:13:04;21.90;99.90
16066;DHT22;8137;48.952;8.970;2023-10-08T10:15:33;21.90;99.80
16066;DHT22;8137;48.952;8.970;2023-10-08T10:18:15;21.90;98.60
16066;DHT22;8137;48.952;8.970;2023-10-08T10:20:52;21.90;96.80
16066;DHT22;8137;48.952;8.970;2023-10-08T10:23:46;21.80;92.40
16066;DHT22;8137;48.952;8.970;2023-10-08T10:26:31;21.80;88.40
16066;DHT22;8137;48.952;8.970;2023-10-08T10:31:52;21.60;77.70
16066;DHT22;8137;48.952;8.970;2023-10-08T10:34:23;21.80;85.30
16066;DHT22;8137;48.952;8.970;2023-10-08T10:36:52;22.20;86.20
16066;DHT22;8137;48.952;8.970;2023-10-08T10:39:28;22.30;72.40
16066;DHT22;8137;48.952;8.970;2023-10-08T10:42:00;22.40;68.60
16066;DHT22;8137;48.952;8.970;2023-10-08T10:44:32;22.50;61.60
16066;DHT22;8137;48.952;8.970;2023-10-08T10:46:58;22.70;62.80
16066;DHT22;8137;48.952;8.970;2023-10-08T10:49:44;22.70;56.20
16066;DHT22;8137;48.952;8.970;2023-10-08T10:52:26;22.70;52.00
16066;DHT22;8137;48.952;8.970;2023-10-08T10:55:05;22.70;50.90
16066;DHT22;8137;48.952;8.970;2023-10-08T11:00:24;22.90;49.70
16066;DHT22;8137;48.952;8.970;2023-10-08T11:03:01;23.10;45.90
16066;DHT22;8137;48.952;8.970;2023-10-08T11:05:36;23.30;43.30
16066;DHT22;8137;48.952;8.970;2023-10-08T11:08:04;23.50;38.70
16066;DHT22;8137;48.952;8.970;2023-10-08T11:10:33;23.50;33.10
16066;DHT22;8137;48.952;8.970;2023-10-08T11:12:59;23.50;28.60
16066;DHT22;8137;48.952;8.970;2023-10-08T11:15:29;23.60;26.80
16066;DHT22;8137;48.952;8.970;2023-10-08T11:18:10;23.80;26.90
16066;DHT22;8137;48.952;8.970;2023-10-08T11:20:36;24.10;24.40
16066;DHT22;8137;48.952;8.970;2023-10-08T11:23:08;24.30;21.90
16066;DHT22;8137;48.952;8.970;2023-10-08T11:25:57;24.40;19.30
16066;DHT22;8137;48.952;8.970;2023-10-08T11:28:31;24.30;17.10
16066;DHT22;8137;48.952;8.970;2023-10-08T11:31:04;24.30;14.70
16066;DHT22;8137;48.952;8.970;2023-10-08T11:33:44;24.20;11.40
16066;DHT22;8137;48.952;8.970;2023-10-08T11:36:22;24.00;10.70
16066;DHT22;8137;48.952;8.970;2023-10-08T11:38:56;23.90;8.80
16066;DHT22;8137;48.952;8.970;2023-10-08T11:41:28;24.20;10.40
16066;DHT22;8137;48.952;8.970;2023-10-08T11:44:12;24.40;10.60
16066;DHT22;8137;48.952;8.970;2023-10-08T11:46:38;24.60;7.50
16066;DHT22;8137;48.952;8.970;2023-10-08T11:49:05;24.70;6.10
16066;DHT22;8137;48.952;8.970;2023-10-08T11:51:32;24.90;4.30
16066;DHT22;8137;48.952;8.970;2023-10-08T11:53:59;25.10;3.30
16066;DHT22;8137;48.952;8.970;2023-10-08T11:56:26;25.00;3.80
16066;DHT22;8137;48.952;8.970;2023-10-08T11:58:52;25.10;1.30
16066;DHT22;8137;48.952;8.970;2023-10-08T12:01:18;25.20;1.00
16066;DHT22;8137;48.952;8.970;2023-10-08T12:03:47;25.20;1.00
16066;DHT22;8137;48.952;8.970;2023-10-08T12:06:15;25.30;1.00
16066;DHT22;8137;48.952;8.970;2023-10-08T12:08:47;25.30;1.00
16066;DHT22;8137;48.952;8.970;2023-10-08T12:11:19;25.30;1.00
16066;DHT22;8137;48.952;8.970;2023-10-08T12:13:44;25.30;1.00
16066;DHT22;8137;48.952;8.970;2023-10-08T12:16:12;25.40;1.00
16066;DHT22;8137;48.952;8.970;2023-10-08T12:18:39;25.20;1.00
16066;DHT22;8137;48.952;8.970;2023-10-08T12:21:05;25.10;1.00
16066;DHT22;8137;48.952;8.970;2023-10-08T12:23:37;24.90;1.00
16066;DHT22;8137;48.952;8.970;2023-10-08T12:26:03;25.00;1.00
16066;DHT22;8137;48.952;8.970;2023-10-08T12:28:29;25.00;1.00
16066;DHT22;8137;48.952;8.970;2023-10-08T12:30:55;25.10;1.00
16066;DHT22;8137;48.952;8.970;2023-10-08T12:33:23;25.10;1.00
16066;DHT22;8137;48.952;8.970;2023-10-08T12:35:51;25.10;1.00
16066;DHT22;8137;48.952;8.970;2023-10-08T12:38:23;25.10;1.00
16066;DHT22;8137;48.952;8.970;2023-10-08T12:40:51;25.10;1.00
16066;DHT22;8137;48.952;8.970;2023-10-08T12:43:20;25.20;1.00
16066;DHT22;8137;48.952;8.970;2023-10-08T12:45:47;25.20;1.00
16066;DHT22;8137;48.952;8.970;2023-10-08T12:48:19;25.30;1.00
16066;DHT22;8137;48.952;8.970;2023-10-08T12:50:44;25.40;1.00
16066;DHT22;8137;48.952;8.970;2023-10-08T12:53:10;25.30;1.00
16066;DHT22;8137;48.952;8.970;2023-10-08T12:55:40;25.30;1.00
16066;DHT22;8137;48.952;8.970;2023-10-08T12:58:09;25.30;1.00
16066;DHT22;8137;48.952;8.970;2023-10-08T13:00:38;25.30;1.00
16066;DHT22;8137;48.952;8.970;2023-10-08T13:03:04;25.40;1.00
16066;DHT22;8137;48.952;8.970;2023-10-08T13:05:49;25.30;1.00
16066;DHT22;8137;48.952;8.970;2023-10-08T13:08:20;25.20;1.00
16066;DHT22;8137;48.952;8.970;2023-10-08T13:10:47;25.20;1.00
16066;DHT22;8137;48.952;8.970;2023-10-08T13:13:13;25.10;1.00
16066;DHT22;8137;48.952;8.970;2023-10-08T13:15:39;25.10;1.00
16066;DHT22;8137;48.952;8.970;2023-10-08T13:18:07;25.20;1.00
16066;DHT22;8137;48.952;8.970;2023-10-08T13:20:33;25.20;1.00
16066;DHT22;8137;48.952;8.970;2023-10-08T13:23:00;25.20;1.00
16066;DHT22;8137;48.952;8.970;2023-10-08T13:25:26;25.20;1.00
16066;DHT22;8137;48.952;8.970;2023-10-08T13:27:52;25.30;1.00
16066;DHT22;8137;48.952;8.970;2023-10-08T13:30:18;25.30;1.00
16066;DHT22;8137;48.952;8.970;2023-10-08T13:32:43;25.30;1.00
16066;DHT22;8137;48.952;8.970;2023-10-08T13:35:11;25.30;1.00
16066;DHT22;8137;48.952;8.970;2023-10-08T13:37:37;25.30;1.00
16066;DHT22;8137;48.952;8.970;2023-10-08T13:40:03;25.30;1.00
16066;DHT22;8137;48.952;8.970;2023-10-08T13:42:29;25.40;1.00
16066;DHT22;8137;48.952;8.970;2023-10-08T13:44:57;25.30;1.00
16066;DHT22;8137;48.952;8.970;2023-10-08T13:47:33;25.30;1.00
16066;DHT22;8137;48.952;8.970;2023-10-08T13:49:59;25.30;1.00
16066;DHT22;8137;48.952;8.970;2023-10-08T13:52:25;25.30;1.00
16066;DHT22;8137;48.952;8.970;2023-10-08T13:54:55;25.30;1.00
16066;DHT22;8137;48.952;8.970;2023-10-08T13:57:21;25.30;1.00
16066;DHT22;8137;48.952;8.970;2023-10-08T13:59:47;25.20;1.00
16066;DHT22;8137;48.952;8.970;2023-10-08T14:02:16;25.10;1.00
16066;DHT22;8137;48.952;8.970;2023-10-08T14:04:46;25.00;1.00
16066;DHT22;8137;48.952;8.970;2023-10-08T14:07:16;24.90;1.00
16066;DHT22;8137;48.952;8.970;2023-10-08T14:09:44;24.80;1.00
16066;DHT22;8137;48.952;8.970;2023-10-08T14:12:13;24.80;1.00
16066;DHT22;8137;48.952;8.970;2023-10-08T14:14:41;24.70;1.00
16066;DHT22;8137;48.952;8.970;2023-10-08T14:17:12;24.60;1.00
16066;DHT22;8137;48.952;8.970;2023-10-08T14:19:42;24.60;1.00
16066;DHT22;8137;48.952;8.970;2023-10-08T14:22:17;24.60;1.00
16066;DHT22;8137;48.952;8.970;2023-10-08T14:24:47;24.60;1.00
16066;DHT22;8137;48.952;8.970;2023-10-08T14:27:26;24.70;1.00
16066;DHT22;8137;48.952;8.970;2023-10-08T14:29:59;24.70;1.00
16066;DHT22;8137;48.952;8.970;2023-10-08T14:32:30;24.70;1.00
16066;DHT22;8137;48.952;8.970;2023-10-08T14:34:58;24.70;1.00
16066;DHT22;8137;48.952;8.970;2023-10-08T14:37:24;24.60;1.00
16066;DHT22;8137;48.952;8.970;2023-10-08T14:40:08;24.60;1.00
16066;DHT22;8137;48.952;8.970;2023-10-08T14:42:52;24.50;1.00
16066;DHT22;8137;48.952;8.970;2023-10-08T14:45:24;24.50;1.00
16066;DHT22;8137;48.952;8.970;2023-10-08T14:47:56;24.40;1.00
16066;DHT22;8137;48.952;8.970;2023-10-08T14:50:23;24.30;1.00
16066;DHT22;8137;48.952;8.970;2023-10-08T14:52:55;24.30;1.00
16066;DHT22;8137;48.952;8.970;2023-10-08T14:55:22;24.20;1.00
16066;DHT22;8137;48.952;8.970;2023-10-08T14:57:49;24.20;1.00
16066;DHT22;8137;48.952;8.970;2023-10-08T15:00:18;24.30;1.00
16066;DHT22;8137;48.952;8.970;2023-10-08T15:02:51;24.30;1.00
16066;DHT22;8137;48.952;8.970;2023-10-08T15:05:19;24.20;1.00
16066;DHT22;8137;48.952;8.970;2023-10-08T15:07:45;24.20;1.00
16066;DHT22;8137;48.952;8.970;2023-10-08T15:10:10;24.20;1.00
16066;DHT22;8137;48.952;8.970;2023-10-08T15:12:39;24.20;1.00
16066;DHT22;8137;48.952;8.970;2023-10-08T15:15:05;24.10;1.30
16066;DHT22;8137;48.952;8.970;2023-10-08T15:17:42;23.90;1.90
16066;DHT22;8137;48.952;8.970;2023-10-08T15:20:09;23.80;3.70
16066;DHT22;8137;48.952;8.970;2023-10-08T15:22:40;23.70;3.50
16066;DHT22;8137;48.952;8.970;2023-10-08T15:25:11;23.60;3.80
16066;DHT22;8137;48.952;8.970;2023-10-08T15:27:38;23.70;3.80
16066;DHT22;8137;48.952;8.970;2023-10-08T15:30:08;23.70;4.30
16066;DHT22;8137;48.952;8.970;2023-10-08T15:32:40;23.80;5.50
16066;DHT22;8137;48.952;8.970;2023-10-08T15:35:09;23.80;5.20
16066;DHT22;8137;48.952;8.970;2023-10-08T15:37:36;24.00;6.10
16066;DHT22;8137;48.952;8.970;2023-10-08T15:40:03;23.90;6.30
16066;DHT22;8137;48.952;8.970;2023-10-08T15:42:33;24.00;5.10
16066;DHT22;8137;48.952;8.970;2023-10-08T15:45:01;24.00;5.60
16066;DHT22;8137;48.952;8.970;2023-10-08T15:47:28;24.00;6.00
16066;DHT22;8137;48.952;8.970;2023-10-08T15:49:53;24.00;7.50
16066;DHT22;8137;48.952;8.970;2023-10-08T15:52:19;24.00;7.30
16066;DHT22;8137;48.952;8.970;2023-10-08T15:54:45;24.00;8.10
16066;DHT22;8137;48.952;8.970;2023-10-08T15:57:11;23.90;12.40
16066;DHT22;8137;48.952;8.970;2023-10-08T15:59:37;23.80;13.70
16066;DHT22;8137;48.952;8.970;2023-10-08T16:02:03;23.70;12.30
16066;DHT22;8137;48.952;8.970;2023-10-08T16:04:28;23.60;13.30
16066;DHT22;8137;48.952;8.970;2023-10-08T16:06:54;23.60;15.60
16066;DHT22;8137;48.952;8.970;2023-10-08T16:09:20;23.50;16.60
16066;DHT22;8137;48.952;8.970;2023-10-08T16:11:47;23.40;16.60
16066;DHT22;8137;48.952;8.970;2023-10-08T16:14:13;23.30;17.30
16066;DHT22;8137;48.952;8.970;2023-10-08T16:16:39;23.10;18.40
16066;DHT22;8137;48.952;8.970;2023-10-08T16:19:04;23.00;21.10
16066;DHT22;8137;48.952;8.970;2023-10-08T16:21:30;22.80;24.30
16066;DHT22;8137;48.952;8.970;2023-10-08T16:23:58;22.60;27.40
16066;DHT22;8137;48.952;8.970;2023-10-08T16:26:24;22.40;29.10
16066;DHT22;8137;48.952;8.970;2023-10-08T16:28:50;22.20;31.40
16066;DHT22;8137;48.952;8.970;2023-10-08T16:31:16;22.10;35.70
16066;DHT22;8137;48.952;8.970;2023-10-08T16:33:42;21.90;41.20
16066;DHT22;8137;48.952;8.970;2023-10-08T16:36:08;21.70;46.30
16066;DHT22;8137;48.952;8.970;2023-10-08T16:38:37;21.60;52.70
16066;DHT22;8137;48.952;8.970;2023-10-08T16:41:03;21.40;58.00
16066;DHT22;8137;48.952;8.970;2023-10-08T16:43:29;21.30;67.60